Time;durP1;ratioP1;P1;durP2;ratioP2;P2;SDS_P1;SDS_P2;PMS_P1;PMS_P2;Temp;Humidity;BMP_temperature;BMP_pressure;BME280_temperature;BME280_humidity;BME280_pressure;Samples;Min_cycle;Max_cycle;Signal;HPM_P1;HPM_P2
2023/02/18 00:01:25;;;;;;;7.23;1.30;;;6.60;97.60;;;;;;6114713;23;20179;-80
2023/02/18 00:03:51;;;;;;;7.23;1.37;;;7.70;1.00;;;;;;6115698;23;20172;-80
2023/02/18 00:06:19;;;;;;;7.83;1.20;;;6.40;99.90;;;;;;6116311;23;20156;-80
2023/02/18 00:08:46;;;;;;;5.60;1.10;;;7.60;99.90;;;;;;6089909;23;20199;-80
2023/02/18 00:11:12;;;;;;;3.70;1.00;;;6.30;1.00;;;;;;6089635;23;20216;-80
2023/02/18 00:13:39;;;;;;;6.87;1.80;;;;;;;;;;6088817;23;20164;-80
2023/02/18 00:16:08;;;;;;;8.50;2.03;;;6.20;99.90;;;;;;6087257;23;20557;-80
2023/02/18 00:18:34;;;;;;;5.53;1.20;;;;;;;;;;6113038;23;20160;-81
2023/02/18 00:21:00;;;;;;;5.53;1.33;;;;;;;;;;6087767;23;20192;-82
2023/02/18 00:23:26;;;;;;;3.77;1.03;;;;;;;;;;6086753;23;20184;-80
2023/02/18 00:26:04;;;;;;;6.80;1.70;;;6.20;4.60;;;;;;6113499;23;20157;-81
2023/02/18 00:28:30;;;;;;;4.67;1.17;;;6.30;83.50;;;;;;6087528;23;20156;-80
2023/02/18 00:30:56;;;;;;;5.40;1.20;;;;;;;;;;6088208;23;20267;-81
2023/02/18 00:33:22;;;;;;;6.80;1.57;;;;;;;;;;6087301;23;20675;-82
2023/02/18 00:35:48;;;;;;;5.50;1.50;;;6.20;11.10;;;;;;6114878;23;20159;-81
2023/02/18 00:38:13;;;;;;;3.73;1.00;;;6.20;1.00;;;;;;6087972;23;20195;-82
2023/02/18 00:40:40;;;;;;;3.00;0.83;;;6.20;1.00;;;;;;6112857;23;20211;-80
2023/02/18 00:43:06;;;;;;;5.27;1.20;;;6.30;1.00;;;;;;6086264;23;20930;-80
2023/02/18 00:45:32;;;;;;;6.70;1.23;;;6.50;1.00;;;;;;6085524;23;20160;-80
2023/02/18 00:47:58;;;;;;;5.93;1.10;;;6.20;1.00;;;;;;6085640;23;20179;-80
2023/02/18 00:50:23;;;;;;;5.93;0.97;;;6.40;1.00;;;;;;6085848;23;20210;-81
2023/02/18 00:52:49;;;;;;;4.23;1.13;;;6.30;1.00;;;;;;6085587;23;20194;-80
2023/02/18 00:55:15;;;;;;;5.60;1.33;;;6.30;1.00;;;;;;6085047;23;20159;-80
2023/02/18 00:57:40;;;;;;;3.83;1.17;;;6.30;1.00;;;;;;6084188;23;20175;-80
2023/02/18 01:00:07;;;;;;;5.90;1.10;;;6.70;1.00;;;;;;6085533;23;20222;-81
2023/02/18 01:02:33;;;;;;;3.13;0.90;;;6.40;1.00;;;;;;6086380;23;20168;-80
2023/02/18 01:04:58;;;;;;;6.27;1.50;;;6.30;1.00;;;;;;6113248;23;20596;-81
2023/02/18 01:07:24;;;;;;;4.43;1.00;;;6.30;1.00;;;;;;6088438;23;20160;-81
2023/02/18 01:09:50;;;;;;;6.57;1.33;;;6.30;1.00;;;;;;6088443;23;20600;-79
2023/02/18 01:12:15;;;;;;;6.40;1.10;;;6.30;1.00;;;;;;6088304;23;20191;-82
2023/02/18 01:14:41;;;;;;;2.67;1.20;;;6.30;1.00;;;;;;6113833;23;20165;-83
2023/02/18 01:17:07;;;;;;;7.50;2.27;;;6.20;1.00;;;;;;6087839;23;20164;-80
2023/02/18 01:19:33;;;;;;;6.77;1.30;;;6.30;1.00;;;;;;6114142;23;20552;-79
2023/02/18 01:21:58;;;;;;;5.10;1.00;;;6.30;1.00;;;;;;6087897;23;20181;-79
2023/02/18 01:24:24;;;;;;;7.83;1.20;;;6.30;1.00;;;;;;6113418;23;20188;-82
2023/02/18 01:26:49;;;;;;;4.67;1.20;;;6.30;1.00;;;;;;6113988;23;20141;-80
2023/02/18 01:29:15;;;;;;;8.07;1.43;;;6.30;1.00;;;;;;6114312;23;20156;-79
2023/02/18 01:31:40;;;;;;;3.00;1.10;;;6.40;1.00;;;;;;6113719;23;20238;-80
2023/02/18 01:34:06;;;;;;;7.33;1.10;;;6.40;1.00;;;;;;6113101;23;20173;-83
2023/02/18 01:36:31;;;;;;;3.93;1.10;;;6.40;1.00;;;;;;6087674;23;20222;-79
2023/02/18 01:38:57;;;;;;;3.60;1.13;;;6.40;1.00;;;;;;6088294;23;20172;-81
2023/02/18 01:41:23;;;;;;;4.90;1.03;;;6.50;1.00;;;;;;6087799;23;20192;-80
2023/02/18 01:44:08;;;;;;;4.33;1.40;;;6.50;1.00;;;;;;6113793;23;20239;-83
2023/02/18 01:46:34;;;;;;;6.50;1.37;;;6.50;1.00;;;;;;6113398;23;20164;-82
2023/02/18 01:49:00;;;;;;;2.43;0.80;;;6.50;1.00;;;;;;6087577;23;20596;-80
2023/02/18 01:51:33;;;;;;;5.63;1.00;;;6.60;1.00;;;;;;6088049;23;20747;-79
2023/02/18 01:54:03;;;;;;;5.00;0.90;;;6.60;1.00;;;;;;6115249;23;20156;-81
2023/02/18 01:56:38;;;;;;;3.30;1.03;;;6.60;1.00;;;;;;6088610;23;20157;-81
2023/02/18 01:59:09;;;;;;;4.90;1.10;;;6.60;1.00;;;;;;6114738;23;20203;-81
2023/02/18 02:01:35;;;;;;;3.87;1.07;;;6.70;1.00;;;;;;6087830;23;20185;-82
2023/02/18 02:04:01;;;;;;;6.47;1.13;;;6.70;1.00;;;;;;6086755;23;20690;-79
2023/02/18 02:06:27;;;;;;;3.77;1.10;;;6.50;1.00;;;;;;6089593;23;20195;-80
2023/02/18 02:08:57;;;;;;;4.23;1.40;;;6.60;1.00;;;;;;6115109;23;20148;-80
2023/02/18 02:11:53;;;;;;;5.90;1.37;;;6.60;1.00;;;;;;6089093;23;20222;-80
2023/02/18 02:14:38;;;;;;;4.80;1.13;;;6.60;1.00;;;;;;6127232;23;20161;-79
2023/02/18 02:17:15;;;;;;;6.00;1.30;;;6.60;1.00;;;;;;6088349;23;20593;-79
2023/02/18 02:19:46;;;;;;;3.53;0.97;;;6.60;1.00;;;;;;6089435;23;20195;-82
2023/02/18 02:22:49;;;;;;;5.70;0.97;;;6.70;1.00;;;;;;6114568;23;20172;-80
2023/02/18 02:25:46;;;;;;;4.70;1.57;;;6.70;1.00;;;;;;6114885;23;20168;-80
2023/02/18 02:28:38;;;;;;;5.07;1.43;;;6.60;1.00;;;;;;6089402;23;20192;-82
2023/02/18 02:31:30;;;;;;;2.30;0.90;;;6.70;1.00;;;;;;6115193;23;20653;-78
2023/02/18 02:34:17;;;;;;;7.73;1.30;;;6.70;1.00;;;;;;6114818;23;20267;-79
2023/02/18 02:37:03;;;;;;;5.83;1.50;;;6.70;1.00;;;;;;6114993;23;20137;-80
2023/02/18 02:39:35;;;;;;;6.50;2.27;;;6.60;1.00;;;;;;6119994;23;20497;-80
2023/02/18 02:42:15;;;;;;;5.70;1.87;;;6.60;1.00;;;;;;6114809;23;20183;-79
2023/02/18 02:44:54;;;;;;;6.50;1.77;;;6.60;1.00;;;;;;6088544;23;20180;-81
2023/02/18 02:47:40;;;;;;;5.70;2.07;;;6.70;1.00;;;;;;6088970;23;20156;-80
2023/02/18 02:50:37;;;;;;;4.90;1.90;;;6.70;1.00;;;;;;6115217;23;20137;-79
2023/02/18 02:53:12;;;;;;;6.43;1.57;;;6.70;1.00;;;;;;6121937;23;20164;-79
2023/02/18 02:55:37;;;;;;;4.20;1.77;;;6.70;1.00;;;;;;6088410;23;20627;-79
2023/02/18 02:58:03;;;;;;;4.83;1.60;;;6.80;1.00;;;;;;6089002;23;20210;-82
2023/02/18 03:00:44;;;;;;;9.13;2.63;;;6.80;1.00;;;;;;6088491;23;20187;-79
2023/02/18 03:03:16;;;;;;;5.60;1.80;;;6.70;1.00;;;;;;6114544;23;20169;-79
2023/02/18 03:05:57;;;;;;;8.03;2.03;;;6.80;1.00;;;;;;6088655;23;20229;-79
2023/02/18 03:09:00;;;;;;;5.87;2.20;;;6.70;1.00;;;;;;6089328;23;20156;-79
2023/02/18 03:11:34;;;;;;;8.33;2.67;;;6.80;1.00;;;;;;6119203;23;20214;-80
2023/02/18 03:14:42;;;;;;;10.33;2.53;;;6.80;1.00;;;;;;6114262;23;20148;-79
2023/02/18 03:17:21;;;;;;;7.57;2.20;;;6.70;1.00;;;;;;6144813;23;20191;-79
2023/02/18 03:19:53;;;;;;;8.33;2.47;;;6.70;1.00;;;;;;6118737;23;20615;-79
2023/02/18 03:22:28;;;;;;;7.70;2.50;;;6.70;1.00;;;;;;6114883;23;20267;-80
2023/02/18 03:24:56;;;;;;;9.23;2.93;;;6.70;1.00;;;;;;6114259;23;20155;-79
2023/02/18 03:27:30;;;;;;;7.63;2.77;;;6.70;1.00;;;;;;6114925;23;20153;-79
2023/02/18 03:30:02;;;;;;;7.17;2.10;;;6.80;1.00;;;;;;6088634;23;20183;-80
2023/02/18 03:32:30;;;;;;;6.53;2.30;;;6.80;1.00;;;;;;6087794;23;20156;-79
2023/02/18 03:35:03;;;;;;;9.90;2.90;;;6.80;1.00;;;;;;6114057;23;20218;-80
2023/02/18 03:37:32;;;;;;;8.37;2.60;;;6.70;1.00;;;;;;6114252;23;20149;-79
2023/02/18 03:39:59;;;;;;;5.60;2.13;;;6.80;1.00;;;;;;6088245;23;20187;-79
2023/02/18 03:42:28;;;;;;;10.17;3.37;;;6.70;1.00;;;;;;6088401;23;20183;-79
2023/02/18 03:44:54;;;;;;;7.60;2.90;;;6.80;1.00;;;;;;6087844;23;20242;-83
2023/02/18 03:47:20;;;;;;;7.07;2.80;;;6.80;1.00;;;;;;6087776;23;20549;-80
2023/02/18 03:49:45;;;;;;;8.47;3.13;;;6.90;1.00;;;;;;6114063;23;20235;-80
2023/02/18 03:52:11;;;;;;;7.73;2.60;;;6.90;1.00;;;;;;6087865;23;20180;-80
2023/02/18 03:54:37;;;;;;;8.40;2.73;;;6.90;1.00;;;;;;6087539;23;20679;-81
2023/02/18 03:57:02;;;;;;;12.07;3.30;;;7.00;1.00;;;;;;6087383;23;20160;-79
2023/02/18 03:59:28;;;;;;;7.13;2.77;;;7.00;1.00;;;;;;6087433;23;20172;-80
2023/02/18 04:01:53;;;;;;;7.80;2.60;;;7.00;1.00;;;;;;6087402;23;20599;-80
2023/02/18 04:04:19;;;;;;;10.20;3.20;;;7.00;1.00;;;;;;6112830;23;20521;-82
2023/02/18 04:06:44;;;;;;;7.53;2.80;;;7.00;1.00;;;;;;6114347;23;20494;-79
2023/02/18 04:09:10;;;;;;;7.40;2.63;;;7.00;1.00;;;;;;6114445;23;20215;-79
2023/02/18 04:11:40;;;;;;;8.17;3.27;;;7.00;1.00;;;;;;6114700;23;20750;-80
2023/02/18 04:14:06;;;;;;;9.07;3.87;;;7.00;1.00;;;;;;6088133;23;20164;-79
2023/02/18 04:16:31;;;;;;;10.87;3.53;;;7.00;1.00;;;;;;6088388;23;20683;-80
2023/02/18 04:18:57;;;;;;;11.60;3.70;;;7.00;1.00;;;;;;6114359;23;20195;-79
2023/02/18 04:21:23;;;;;;;10.43;4.27;;;7.00;1.00;;;;;;6114194;23;20176;-79
2023/02/18 04:23:48;;;;;;;10.33;4.50;;;7.00;1.00;;;;;;6087244;23;20307;-79
2023/02/18 04:26:14;;;;;;;14.07;4.77;;;8.70;3.50;;;;;;6113547;23;20306;-82
2023/02/18 04:28:39;;;;;;;8.53;4.40;;;7.00;9.60;;;;;;6114669;23;20490;-79
2023/02/18 04:31:05;;;;;;;13.80;5.70;;;7.00;14.40;;;;;;6114350;23;20225;-81
2023/02/18 04:33:30;;;;;;;12.43;4.60;;;7.00;18.50;;;;;;6087150;23;20179;-80
2023/02/18 04:35:56;;;;;;;12.87;5.33;;;7.00;23.20;;;;;;6087294;23;20152;-81
2023/02/18 04:38:22;;;;;;;12.13;5.10;;;7.00;31.30;;;;;;6114462;23;20439;-80
2023/02/18 04:40:47;;;;;;;10.90;4.87;;;7.00;37.70;;;;;;6114172;23;20180;-79
2023/02/18 04:43:13;;;;;;;14.03;5.93;;;7.00;70.60;;;;;;6087859;23;20668;-79
2023/02/18 04:45:38;;;;;;;11.80;6.03;;;7.00;74.30;;;;;;6087409;23;20156;-81
2023/02/18 04:48:04;;;;;;;13.20;6.10;;;7.00;80.70;;;;;;6113892;23;20156;-79
2023/02/18 04:50:30;;;;;;;13.30;6.43;;;7.00;91.80;;;;;;6114112;23;20199;-79
2023/02/18 04:52:55;;;;;;;12.87;6.73;;;7.00;97.00;;;;;;6088489;23;20998;-79
2023/02/18 04:55:21;;;;;;;13.90;6.10;;;7.00;99.90;;;;;;6113172;23;20170;-81
2023/02/18 04:57:47;;;;;;;17.37;7.13;;;7.00;99.90;;;;;;6113569;23;20188;-79
2023/02/18 05:00:15;;;;;;;11.40;6.80;;;7.00;99.90;;;;;;6088091;23;20164;-80
2023/02/18 05:02:40;;;;;;;12.47;6.87;;;7.00;99.90;;;;;;6087428;23;20609;-80
2023/02/18 05:05:06;;;;;;;12.00;6.40;;;6.90;99.90;;;;;;6112917;23;20164;-79
2023/02/18 05:07:32;;;;;;;12.73;6.00;;;6.90;99.90;;;;;;6113760;23;20159;-80
2023/02/18 05:09:57;;;;;;;13.93;6.87;;;6.80;99.90;;;;;;6088087;23;20160;-79
2023/02/18 05:12:23;;;;;;;14.00;6.67;;;6.80;99.90;;;;;;6087639;23;20187;-79
2023/02/18 05:14:48;;;;;;;15.00;6.87;;;6.80;99.90;;;;;;6086698;23;20164;-79
2023/02/18 05:17:14;;;;;;;13.87;6.80;;;6.70;1.00;;;;;;6113714;23;20164;-82
2023/02/18 05:19:39;;;;;;;14.63;6.87;;;6.70;1.00;;;;;;6087617;23;20252;-79
2023/02/18 05:22:05;;;;;;;15.33;6.90;;;6.60;1.00;;;;;;6088068;23;20187;-80
2023/02/18 05:24:30;;;;;;;17.20;8.10;;;6.60;99.90;;;;;;6086726;23;20230;-80
2023/02/18 05:26:56;;;;;;;14.77;6.67;;;6.50;99.90;;;;;;6114882;23;20155;-82
2023/02/18 05:29:21;;;;;;;14.30;7.50;;;6.50;1.00;;;;;;6089013;23;20596;-79
2023/02/18 05:31:47;;;;;;;16.33;8.10;;;6.50;1.00;;;;;;6089269;23;20230;-79
2023/02/18 05:34:12;;;;;;;14.47;8.10;;;6.50;39.20;;;;;;6113733;23;20225;-80
2023/02/18 05:36:38;;;;;;;17.97;8.83;;;6.40;99.90;;;;;;6115189;23;20218;-82
2023/02/18 05:39:03;;;;;;;15.07;8.00;;;6.40;1.00;;;;;;6114806;23;20245;-80
2023/02/18 05:41:29;;;;;;;20.60;8.67;;;6.40;99.90;;;;;;6088991;23;20226;-79
2023/02/18 05:46:39;;;;;;;17.93;9.83;;;6.30;71.80;;;;;;6115112;23;20152;-79
2023/02/18 05:49:04;;;;;;;19.93;9.80;;;6.40;99.90;;;;;;6088857;23;20164;-82
2023/02/18 05:51:30;;;;;;;15.03;8.70;;;6.40;37.70;;;;;;6114934;23;20180;-79
2023/02/18 05:53:55;;;;;;;20.30;11.03;;;6.40;1.00;;;;;;6088234;23;20643;-79
2023/02/18 05:56:21;;;;;;;19.40;10.83;;;6.30;93.00;;;;;;6114735;23;20179;-80
2023/02/18 05:58:47;;;;;;;21.60;11.47;;;6.40;1.00;;;;;;6115120;23;20161;-82
2023/02/18 06:01:13;;;;;;;16.80;10.60;;;6.40;99.90;;;;;;6115136;23;20207;-79
2023/02/18 06:03:38;;;;;;;20.37;11.13;;;6.40;1.00;;;;;;6088445;23;20188;-81
2023/02/18 06:06:04;;;;;;;23.60;12.00;;;6.40;10.60;;;;;;6088877;23;20160;-79
2023/02/18 06:08:30;;;;;;;23.17;12.37;;;6.40;99.90;;;;;;6089060;23;20192;-79
2023/02/18 06:10:55;;;;;;;19.63;12.37;;;6.40;1.00;;;;;;6114458;23;20222;-79
2023/02/18 06:13:21;;;;;;;25.50;13.13;;;6.40;99.90;;;;;;6088464;23;20160;-79
2023/02/18 06:15:50;;;;;;;21.33;11.87;;;6.40;1.00;;;;;;6088680;23;20585;-79
2023/02/18 06:18:16;;;;;;;20.60;12.23;;;6.40;99.90;;;;;;6113744;23;20248;-80
2023/02/18 06:20:42;;;;;;;18.33;11.63;;;6.40;1.00;;;;;;6113671;23;20173;-80
2023/02/18 06:23:07;;;;;;;25.87;13.60;;;6.40;1.00;;;;;;6113040;23;20214;-79
2023/02/18 06:25:33;;;;;;;21.73;12.77;;;6.40;1.00;;;;;;6087927;23;20160;-80
2023/02/18 06:27:59;;;;;;;19.60;11.87;;;6.30;99.90;;;;;;6088786;23;20629;-80
2023/02/18 06:30:24;;;;;;;21.73;12.40;;;6.40;99.90;;;;;;6113611;23;20518;-80
2023/02/18 06:32:50;;;;;;;23.67;12.93;;;6.40;99.90;;;;;;6112482;23;20224;-79
2023/02/18 06:35:15;;;;;;;24.43;13.50;;;6.40;1.00;;;;;;6086660;23;20172;-79
2023/02/18 06:37:41;;;;;;;23.30;12.97;;;6.40;1.00;;;;;;6113417;23;20152;-79
2023/02/18 06:40:08;;;;;;;25.53;13.27;;;6.40;1.00;;;;;;6086908;23;20167;-79
2023/02/18 06:42:33;;;;;;;25.50;13.97;;;6.50;51.60;;;;;;6087773;23;20532;-80
2023/02/18 06:44:59;;;;;;;25.50;14.27;;;6.40;99.90;;;;;;6112602;23;20153;-79
2023/02/18 06:47:25;;;;;;;25.33;13.77;;;6.40;99.90;;;;;;6088238;23;20152;-79
2023/02/18 06:49:51;;;;;;;27.60;15.83;;;6.40;99.90;;;;;;6086901;23;20235;-80
2023/02/18 06:52:17;;;;;;;26.90;16.17;;;6.40;99.90;;;;;;6113058;23;20686;-80
2023/02/18 06:54:42;;;;;;;25.40;15.17;;;6.40;99.90;;;;;;6086505;23;20200;-79
2023/02/18 06:57:08;;;;;;;25.40;15.00;;;6.40;99.90;;;;;;6087669;23;20480;-80
2023/02/18 06:59:33;;;;;;;20.53;12.30;;;6.40;1.00;;;;;;6113590;23;20188;-80
2023/02/18 07:01:59;;;;;;;21.10;12.17;;;6.40;1.00;;;;;;6087214;23;20691;-79
2023/02/18 07:04:24;;;;;;;27.53;14.40;;;6.40;1.00;;;;;;6112716;23;20188;-80
2023/02/18 07:06:50;;;;;;;21.93;13.30;;;6.40;1.00;;;;;;6113389;23;20159;-79
2023/02/18 07:09:16;;;;;;;22.40;13.10;;;6.30;1.00;;;;;;6086622;23;20195;-80
2023/02/18 07:11:41;;;;;;;21.20;13.50;;;6.40;1.00;;;;;;6113305;23;20172;-80
2023/02/18 07:14:07;;;;;;;25.47;14.13;;;6.40;1.00;;;;;;6112268;23;20149;-80
2023/02/18 07:16:32;;;;;;;24.17;13.70;;;6.40;1.00;;;;;;6087237;23;20167;-80
2023/02/18 07:18:58;;;;;;;23.83;14.90;;;6.40;1.00;;;;;;6113221;23;20157;-79
2023/02/18 07:21:23;;;;;;;22.03;14.60;;;6.50;1.00;;;;;;6112350;23;20202;-80
2023/02/18 07:23:49;;;;;;;24.50;16.70;;;6.50;1.00;;;;;;6110410;23;20180;-79
2023/02/18 07:26:14;;;;;;;27.73;16.03;;;6.60;1.00;;;;;;6111561;23;20156;-79
2023/02/18 07:28:40;;;;;;;22.07;15.20;;;6.70;1.00;;;;;;6111937;23;20232;-79
2023/02/18 07:31:06;;;;;;;20.70;13.97;;;6.80;1.00;;;;;;6086101;23;20295;-79
2023/02/18 07:33:32;;;;;;;21.17;13.50;;;6.90;1.00;;;;;;6112974;23;20176;-79
2023/02/18 07:36:00;;;;;;;19.50;13.27;;;6.90;12.60;;;;;;6087990;23;20156;-79
2023/02/18 07:38:26;;;;;;;21.40;13.13;;;7.00;45.40;;;;;;6113835;23;20235;-79
2023/02/18 07:40:53;;;;;;;19.70;12.70;;;7.10;89.30;;;;;;6113366;23;20932;-80
2023/02/18 07:43:19;;;;;;;19.87;13.73;;;7.20;99.90;;;;;;6086669;23;20180;-79
2023/02/18 07:45:45;;;;;;;19.50;13.43;;;7.20;99.90;;;;;;6087477;23;20195;-79
2023/02/18 07:48:11;;;;;;;19.80;12.93;;;7.30;99.90;;;;;;6087046;23;20670;-80
2023/02/18 07:50:41;;;;;;;20.33;13.17;;;7.30;99.90;;;;;;6112838;23;20172;-79
2023/02/18 07:53:09;;;;;;;21.57;13.23;;;7.30;99.90;;;;;;6116365;23;20244;-79
2023/02/18 07:55:50;;;;;;;18.93;12.70;;;7.40;99.90;;;;;;6113090;23;20925;-81
2023/02/18 07:58:24;;;;;;;19.23;12.70;;;7.40;99.90;;;;;;6088329;23;20551;-80
2023/02/18 08:00:52;;;;;;;17.30;11.87;;;7.40;99.90;;;;;;6087392;23;20184;-80
2023/02/18 08:03:19;;;;;;;18.70;12.13;;;7.40;99.90;;;;;;6087226;23;20188;-79
2023/02/18 08:05:46;;;;;;;17.67;11.40;;;7.40;99.90;;;;;;6087298;23;20169;-78
2023/02/18 08:08:23;;;;;;;19.13;11.60;;;7.50;99.90;;;;;;6087054;23;20161;-80
2023/02/18 08:10:50;;;;;;;15.77;10.80;;;7.50;99.90;;;;;;6113728;23;20172;-79
2023/02/18 08:13:16;;;;;;;15.43;10.73;;;7.60;99.90;;;;;;6113244;23;20155;-78
2023/02/18 08:15:42;;;;;;;16.87;11.10;;;7.50;99.90;;;;;;6113265;23;20234;-79
2023/02/18 08:18:17;;;;;;;15.73;10.70;;;7.60;99.90;;;;;;6087289;23;20254;-79
2023/02/18 08:20:43;;;;;;;17.03;10.17;;;7.60;99.90;;;;;;6114980;23;20176;-79
2023/02/18 08:23:09;;;;;;;16.87;10.43;;;7.60;99.90;;;;;;6088074;23;20196;-79
2023/02/18 08:25:35;;;;;;;15.90;10.37;;;7.70;99.90;;;;;;6088102;23;20195;-79
2023/02/18 08:28:01;;;;;;;14.80;9.67;;;7.80;99.90;;;;;;6110684;23;20152;-79
2023/02/18 08:30:27;;;;;;;13.63;9.57;;;7.90;99.90;;;;;;6112721;23;20179;-80
2023/02/18 08:32:52;;;;;;;15.43;10.73;;;7.90;99.90;;;;;;6086873;23;20531;-80
2023/02/18 08:35:18;;;;;;;14.83;9.23;;;8.00;99.90;;;;;;6086677;23;20203;-79
2023/02/18 08:37:44;;;;;;;12.63;8.80;;;8.10;99.90;;;;;;6087650;23;20168;-79
2023/02/18 08:40:11;;;;;;;12.00;8.20;;;8.10;99.90;;;;;;6087783;23;20503;-79
2023/02/18 08:42:37;;;;;;;9.20;7.10;;;8.20;99.90;;;;;;6113591;23;20830;-79
2023/02/18 08:45:04;;;;;;;9.03;6.57;;;8.30;99.90;;;;;;6112501;23;20176;-79
2023/02/18 08:47:30;;;;;;;8.67;6.20;;;8.30;99.90;;;;;;6113490;23;20620;-79
2023/02/18 08:49:56;;;;;;;7.47;5.30;;;8.40;99.90;;;;;;6115846;23;20228;-79
2023/02/18 08:52:23;;;;;;;7.27;4.60;;;8.50;99.90;;;;;;6089174;23;20625;-80
2023/02/18 08:54:49;;;;;;;6.23;4.60;;;8.50;99.90;;;;;;6084497;23;20161;-78
2023/02/18 08:57:15;;;;;;;7.40;4.90;;;8.60;99.90;;;;;;6083513;23;20976;-78
2023/02/18 08:59:40;;;;;;;5.30;4.23;;;9.30;99.90;;;;;;6080742;23;20168;-78
2023/02/18 09:02:06;;;;;;;5.90;4.13;;;8.60;99.90;;;;;;6087126;23;20191;-77
2023/02/18 09:04:32;;;;;;;4.50;3.37;;;8.70;99.90;;;;;;6113424;23;20179;-79
2023/02/18 09:06:59;;;;;;;4.10;3.40;;;9.00;99.90;;;;;;6114175;23;20153;-78
2023/02/18 09:09:25;;;;;;;5.27;2.97;;;8.70;99.90;;;;;;6087355;23;20164;-79
2023/02/18 09:11:51;;;;;;;3.40;2.27;;;8.70;99.90;;;;;;6086979;23;20276;-78
2023/02/18 09:14:16;;;;;;;3.80;2.40;;;8.60;99.90;;;;;;6085198;23;20187;-77
2023/02/18 09:16:42;;;;;;;2.27;1.57;;;8.70;99.90;;;;;;6112944;23;20156;-78
2023/02/18 09:19:08;;;;;;;3.40;2.20;;;8.70;99.90;;;;;;6110425;23;20165;-78
2023/02/18 09:21:34;;;;;;;1.60;1.30;;;8.70;99.90;;;;;;6110685;23;20183;-78
2023/02/18 09:24:00;;;;;;;1.73;1.60;;;8.80;99.90;;;;;;6108873;23;20184;-80
2023/02/18 09:26:26;;;;;;;1.87;1.57;;;8.90;99.90;;;;;;6086164;23;20522;-78
2023/02/18 09:28:55;;;;;;;2.07;1.60;;;9.00;99.90;;;;;;6112263;23;20604;-78
2023/02/18 09:31:23;;;;;;;2.03;1.57;;;9.00;99.90;;;;;;6111505;23;20204;-79
2023/02/18 09:33:56;;;;;;;1.63;1.10;;;9.00;99.90;;;;;;6111440;23;20619;-79
2023/02/18 09:36:21;;;;;;;3.80;1.20;;;9.10;99.90;;;;;;6111766;23;20161;-79
2023/02/18 09:38:48;;;;;;;1.40;1.30;;;9.10;99.90;;;;;;6112701;23;20222;-79
2023/02/18 09:41:21;;;;;;;1.37;1.00;;;9.10;99.90;;;;;;6111561;23;20633;-78
2023/02/18 09:43:54;;;;;;;1.30;1.20;;;9.20;99.90;;;;;;6109876;23;20171;-78
2023/02/18 09:46:20;;;;;;;1.47;1.10;;;9.30;99.90;;;;;;6085725;23;20149;-79
2023/02/18 09:48:47;;;;;;;1.10;1.00;;;9.40;99.90;;;;;;6085275;23;20163;-78
2023/02/18 09:51:15;;;;;;;2.40;1.00;;;9.40;99.90;;;;;;6111340;23;20234;-79
2023/02/18 09:53:46;;;;;;;1.13;1.03;;;9.40;99.90;;;;;;6085377;23;20204;-78
2023/02/18 09:56:21;;;;;;;1.03;1.00;;;9.50;99.90;;;;;;6085192;23;20157;-78
2023/02/18 09:58:49;;;;;;;0.70;0.70;;;9.60;99.90;;;;;;6112207;23;20145;-79
2023/02/18 10:01:24;;;;;;;0.70;0.70;;;9.70;25.50;;;;;;6112103;23;20176;-78
2023/02/18 10:03:50;;;;;;;0.70;0.70;;;9.70;1.00;;;;;;6086348;23;20202;-79
2023/02/18 10:06:25;;;;;;;0.77;0.60;;;9.70;1.00;;;;;;6090019;23;20188;-78
2023/02/18 10:08:53;;;;;;;0.70;0.70;;;9.70;1.00;;;;;;6086712;23;20289;-80
2023/02/18 10:11:22;;;;;;;1.03;0.60;;;9.70;1.00;;;;;;6080097;23;20219;-79
2023/02/18 10:13:49;;;;;;;1.03;0.60;;;9.70;1.00;;;;;;6110363;23;20145;-79
2023/02/18 10:16:17;;;;;;;0.50;0.50;;;9.70;1.00;;;;;;6111628;23;20159;-78
2023/02/18 10:18:48;;;;;;;1.07;0.80;;;9.80;1.00;;;;;;6084660;23;20164;-78
2023/02/18 10:21:30;;;;;;;0.30;0.30;;;9.80;1.00;;;;;;6111319;23;20180;-79
2023/02/18 10:24:17;;;;;;;0.50;0.50;;;9.80;1.00;;;;;;6111802;23;20222;-78
2023/02/18 10:26:43;;;;;;;0.33;0.33;;;9.80;1.00;;;;;;6113160;23;20165;-79
2023/02/18 10:29:14;;;;;;;0.50;0.40;;;9.80;1.00;;;;;;6111606;23;20156;-78
2023/02/18 10:31:59;;;;;;;0.40;0.40;;;9.90;99.90;;;;;;6113662;23;20263;-78
2023/02/18 10:34:57;;;;;;;0.70;0.47;;;9.90;99.90;;;;;;6115174;23;20203;-78
2023/02/18 10:37:41;;;;;;;0.40;0.40;;;9.90;99.90;;;;;;6114434;23;20156;-80
2023/02/18 10:40:34;;;;;;;0.40;0.40;;;9.90;99.90;;;;;;6089452;23;20157;-77
2023/02/18 10:43:28;;;;;;;0.50;0.50;;;9.90;99.90;;;;;;6114112;23;20144;-78
2023/02/18 10:46:16;;;;;;;0.60;0.60;;;9.90;99.90;;;;;;6113753;23;20194;-78
2023/02/18 10:48:59;;;;;;;0.50;0.50;;;9.90;71.60;;;;;;6116686;23;20141;-80
2023/02/18 10:51:30;;;;;;;0.50;0.50;;;9.90;1.00;;;;;;6087972;23;20199;-78
2023/02/18 10:53:56;;;;;;;0.50;0.50;;;10.30;1.00;;;;;;6084953;23;20619;-80
2023/02/18 10:56:52;;;;;;;0.60;0.60;;;10.00;99.90;;;;;;6088227;23;20168;-80
2023/02/18 10:59:19;;;;;;;0.70;0.60;;;10.00;1.00;;;;;;6093664;23;20268;-80
2023/02/18 11:01:51;;;;;;;0.60;0.60;;;10.00;1.00;;;;;;6114722;23;20181;-78
2023/02/18 11:04:20;;;;;;;1.10;0.80;;;10.00;1.00;;;;;;6114572;23;20199;-78
2023/02/18 11:06:48;;;;;;;0.83;0.83;;;10.00;99.90;;;;;;6114510;23;20168;-78
2023/02/18 11:09:27;;;;;;;2.50;0.90;;;10.00;93.80;;;;;;6115733;23;20157;-79
2023/02/18 11:12:19;;;;;;;0.80;0.80;;;10.00;1.00;;;;;;6088797;23;20191;-80
2023/02/18 11:15:02;;;;;;;0.80;0.80;;;10.00;99.90;;;;;;6111622;23;20164;-80
2023/02/18 11:17:32;;;;;;;1.00;1.00;;;9.90;99.90;;;;;;6111218;23;20137;-79
2023/02/18 11:20:01;;;;;;;1.20;1.10;;;10.00;1.00;;;;;;6111912;23;20236;-80
2023/02/18 11:22:32;;;;;;;0.90;0.90;;;9.90;1.00;;;;;;6111173;23;20188;-79
2023/02/18 11:25:17;;;;;;;1.03;1.00;;;9.90;1.00;;;;;;6086984;23;20522;-79
2023/02/18 11:27:56;;;;;;;1.07;1.03;;;10.00;1.00;;;;;;6113537;23;20136;-77
2023/02/18 11:30:26;;;;;;;1.20;1.00;;;9.90;99.90;;;;;;6113057;23;20156;-78
2023/02/18 11:33:17;;;;;;;1.17;1.00;;;9.90;1.00;;;;;;6115550;23;20145;-79
2023/02/18 11:35:51;;;;;;;1.03;1.03;;;10.00;55.40;;;;;;6114843;23;20148;-81
2023/02/18 11:38:34;;;;;;;1.00;1.00;;;9.90;94.90;;;;;;6088535;23;20194;-78
2023/02/18 11:41:12;;;;;;;1.00;1.00;;;9.80;1.00;;;;;;6114374;23;20298;-81
2023/02/18 11:43:42;;;;;;;1.87;1.20;;;9.80;1.00;;;;;;6086653;23;20251;-81
2023/02/18 11:46:13;;;;;;;1.00;1.00;;;9.80;98.60;;;;;;6114053;23;20230;-79
2023/02/18 11:48:39;;;;;;;1.10;1.00;;;9.70;99.90;;;;;;6088467;23;20155;-79
2023/02/18 11:51:04;;;;;;;1.33;1.23;;;9.90;1.00;;;;;;6112959;23;20176;-77
2023/02/18 11:53:35;;;;;;;1.37;1.27;;;9.90;1.00;;;;;;6086654;23;20195;-77
2023/02/18 11:56:04;;;;;;;1.10;1.10;;;9.80;1.00;;;;;;6113207;23;20186;-81
2023/02/18 11:58:38;;;;;;;1.40;1.30;;;9.80;1.00;;;;;;6086569;23;20157;-79
2023/02/18 12:01:05;;;;;;;1.30;1.20;;;9.70;99.90;;;;;;6112724;23;20520;-79
2023/02/18 12:03:39;;;;;;;1.53;1.40;;;9.70;99.90;;;;;;6085416;23;20247;-77
2023/02/18 12:06:19;;;;;;;1.20;1.10;;;9.70;99.90;;;;;;6112640;23;20179;-78
2023/02/18 12:08:56;;;;;;;1.23;1.13;;;9.60;99.90;;;;;;6087117;23;20152;-78
2023/02/18 12:11:31;;;;;;;1.20;1.10;;;9.80;1.00;;;;;;6112477;23;20548;-79
2023/02/18 12:13:58;;;;;;;1.53;1.43;;;9.70;1.00;;;;;;6086041;23;20548;-79
2023/02/18 12:16:43;;;;;;;1.13;1.03;;;9.80;99.90;;;;;;6112658;23;20160;-79
2023/02/18 12:19:32;;;;;;;1.20;1.10;;;9.90;99.90;;;;;;6086068;23;20183;-79
2023/02/18 12:22:21;;;;;;;1.67;1.10;;;9.90;99.90;;;;;;6111861;23;20616;-78
2023/02/18 12:25:14;;;;;;;1.00;1.00;;;9.80;99.90;;;;;;6085441;23;20561;-81
2023/02/18 12:27:54;;;;;;;1.10;1.10;;;10.00;99.90;;;;;;6112756;23;20141;-79
2023/02/18 12:30:46;;;;;;;1.13;1.03;;;10.00;99.90;;;;;;6085602;23;20226;-79
2023/02/18 12:33:31;;;;;;;1.10;1.10;;;10.00;1.00;;;;;;6085848;23;20239;-77
2023/02/18 12:36:16;;;;;;;1.30;1.20;;;10.00;1.00;;;;;;6111124;23;20149;-80
2023/02/18 12:39:19;;;;;;;1.30;1.20;;;9.90;99.90;;;;;;6112046;23;20217;-80
2023/02/18 12:42:16;;;;;;;1.10;1.10;;;9.90;99.90;;;;;;6112079;23;20180;-78
2023/02/18 12:44:59;;;;;;;1.20;1.10;;;10.00;1.00;;;;;;6085229;23;20189;-78
2023/02/18 12:47:28;;;;;;;0.93;0.93;;;10.00;1.00;;;;;;6112505;23;20171;-79
2023/02/18 12:50:27;;;;;;;1.43;1.20;;;9.90;1.00;;;;;;6086025;23;20160;-78
2023/02/18 12:52:59;;;;;;;2.43;1.40;;;9.90;99.90;;;;;;6112090;23;20136;-78
2023/02/18 12:55:59;;;;;;;1.90;1.30;;;9.90;99.90;;;;;;6111220;23;20214;-80
2023/02/18 12:58:45;;;;;;;1.20;1.10;;;9.90;99.90;;;;;;6114094;23;20192;-80
2023/02/18 13:01:38;;;;;;;1.20;1.10;;;9.90;99.90;;;;;;6090406;23;20179;-80
2023/02/18 13:04:34;;;;;;;1.30;1.20;;;9.80;99.90;;;;;;6116548;23;20168;-79
2023/02/18 13:07:28;;;;;;;1.37;1.27;;;9.80;99.90;;;;;;6088869;23;20557;-78
2023/02/18 13:10:31;;;;;;;2.93;1.43;;;9.80;1.00;;;;;;6111227;23;20671;-78
2023/02/18 13:13:12;;;;;;;1.70;1.50;;;9.70;27.50;;;;;;6108584;23;20145;-77
2023/02/18 13:15:44;;;;;;;1.70;1.60;;;9.70;99.90;;;;;;6108477;23;20589;-78
2023/02/18 13:18:15;;;;;;;1.80;1.70;;;9.70;99.90;;;;;;6106015;23;20164;-78
2023/02/18 13:21:15;;;;;;;1.87;1.60;;;9.70;1.00;;;;;;6081884;23;20176;-78